createdAt,value
2018-06-13T00:03:56.292Z,92.18
2018-06-13T00:08:54.953Z,92.74
2018-06-13T00:13:55.357Z,92.55
2018-06-13T00:18:57.597Z,91.67
2018-06-13T00:24:02.241Z,91.51
2018-06-13T00:28:58.689Z,92.08
2018-06-13T00:33:55.553Z,91.66
2018-06-13T00:38:51.228Z,91.21
2018-06-13T00:43:46.402Z,91.22
2018-06-13T00:48:41.431Z,91.91
2018-06-13T00:53:36.403Z,92.21
2018-06-13T00:58:32.571Z,92.57
2018-06-13T01:03:53.087Z,92.24
2018-06-13T01:08:48.419Z,92.42
2018-06-13T01:19:08.156Z,93.04
2018-06-13T01:24:03.367Z,92.83
2018-06-13T01:28:58.465Z,93.05
2018-06-13T01:33:56.179Z,92.69
2018-06-13T01:38:51.755Z,92.66
2018-06-13T01:43:47.043Z,92.81
2018-06-13T01:48:43.095Z,92.53
2018-06-13T01:53:38.292Z,92.48
2018-06-13T01:58:33.860Z,92.55
2018-06-13T02:03:53.233Z,90.17
2018-06-13T02:08:51.303Z,88.96
2018-06-13T02:13:46.763Z,89.50
2018-06-13T02:18:42.067Z,88.57
2018-06-13T02:23:42.886Z,88.32
2018-06-13T02:28:59.990Z,89.44
2018-06-13T02:33:55.337Z,90.05
2018-06-13T02:38:50.314Z,91.06
2018-06-13T02:43:58.698Z,90.58
2018-06-13T02:48:53.887Z,88.99
2018-06-13T02:53:48.733Z,90.68
2018-06-13T02:58:43.678Z,89.24
2018-06-13T03:03:38.883Z,91.02
2018-06-13T03:08:36.569Z,89.67
2018-06-13T03:18:41.765Z,90.96
2018-06-13T03:23:45.099Z,90.97
2018-06-13T03:29:06.478Z,91.58
2018-06-13T03:34:01.625Z,90.76
2018-06-13T03:38:56.656Z,90.35
2018-06-13T03:43:54.565Z,89.99
2018-06-13T03:48:49.480Z,90.79
2018-06-13T03:53:44.352Z,90.40
2018-06-13T03:58:39.158Z,91.39
2018-06-13T04:03:33.835Z,90.97
2018-06-13T04:08:28.564Z,91.02
2018-06-13T04:13:23.225Z,89.92
2018-06-13T04:18:17.952Z,90.69
2018-06-13T04:23:12.636Z,91.15
2018-06-13T04:28:07.377Z,90.01
2018-06-13T04:33:02.150Z,87.88
2018-06-13T04:37:56.782Z,89.17
2018-06-13T04:42:51.474Z,90.36
2018-06-13T04:47:46.096Z,89.43
2018-06-13T04:52:40.931Z,87.53
2018-06-13T04:57:35.556Z,90.78
2018-06-13T05:02:30.256Z,88.87
2018-06-13T05:07:25.107Z,87.46
2018-06-13T05:12:21.718Z,85.87
2018-06-13T05:17:19.511Z,87.52
2018-06-13T05:22:14.084Z,88.46
2018-06-13T05:27:08.763Z,91.08
2018-06-13T05:32:03.481Z,90.16
2018-06-13T05:36:58.152Z,90.29
2018-06-13T05:41:53.059Z,90.32
2018-06-13T05:46:47.699Z,87.47
2018-06-13T05:51:42.338Z,88.33
2018-06-13T05:56:36.939Z,88.81
2018-06-13T06:01:31.746Z,89.61
2018-06-13T06:06:26.440Z,90.52
2018-06-13T06:11:21.138Z,87.93
2018-06-13T06:16:15.899Z,87.73
2018-06-13T06:21:10.681Z,88.30
2018-06-13T06:26:26.024Z,90.21
2018-06-13T06:31:21.125Z,90.60
2018-06-13T06:36:16.220Z,89.23
2018-06-13T06:41:11.359Z,89.94
2018-06-13T06:46:06.405Z,88.87
2018-06-13T06:51:01.217Z,89.72
2018-06-13T06:55:56.521Z,91.09
2018-06-13T07:00:52.042Z,91.12
2018-06-13T07:06:22.508Z,91.16
2018-06-13T07:11:17.873Z,91.28
2018-06-13T07:16:12.956Z,91.68
2018-06-13T07:21:08.831Z,88.85
2018-06-13T07:26:06.095Z,89.95
2018-06-13T07:31:02.303Z,88.87
2018-06-13T07:35:57.550Z,90.45
2018-06-13T07:40:53.237Z,90.17
2018-06-13T07:45:49.375Z,90.62
2018-06-13T07:50:44.487Z,90.23
2018-06-13T07:55:39.545Z,90.07
2018-06-13T08:00:34.733Z,86.88
2018-06-13T08:05:29.848Z,87.95
2018-06-13T08:10:45.659Z,87.53
2018-06-13T08:15:40.599Z,88.62
2018-06-13T08:20:35.235Z,89.01
2018-06-13T08:25:30.029Z,87.98
2018-06-13T08:30:24.646Z,86.99
2018-06-13T08:35:19.283Z,86.11
2018-06-13T08:40:16.288Z,88.09
2018-06-13T08:45:10.982Z,90.64
2018-06-13T08:50:05.690Z,90.06
2018-06-13T08:55:00.436Z,90.25
2018-06-13T08:59:55.167Z,89.49
2018-06-13T09:04:49.882Z,88.50
2018-06-13T09:09:44.775Z,87.88
2018-06-13T09:14:39.491Z,84.21
2018-06-13T09:19:34.161Z,89.05
2018-06-13T09:24:28.917Z,90.11
2018-06-13T09:29:23.571Z,88.63
2018-06-13T09:34:18.258Z,88.90
2018-06-13T09:39:12.844Z,88.25
2018-06-13T09:44:07.792Z,89.18
2018-06-13T09:49:02.081Z,89.49
2018-06-13T09:53:56.835Z,89.38
2018-06-13T09:58:57.298Z,89.39
2018-06-13T10:03:52.062Z,90.29
2018-06-13T10:08:46.987Z,90.43
2018-06-13T10:13:41.867Z,89.69
2018-06-13T10:18:36.607Z,89.59
2018-06-13T10:23:32.035Z,88.85
2018-06-13T10:28:26.850Z,89.09
2018-06-13T10:33:22.235Z,89.05
2018-06-13T10:38:17.091Z,89.41
2018-06-13T10:43:11.763Z,88.85
2018-06-13T10:48:06.536Z,88.82
2018-06-13T10:53:01.249Z,89.44
2018-06-13T10:57:56.076Z,90.28
2018-06-13T11:02:50.856Z,90.46
2018-06-13T11:07:45.603Z,90.98
2018-06-13T11:12:40.356Z,90.13
2018-06-13T11:17:35.106Z,87.97
2018-06-13T11:22:30.062Z,87.87
2018-06-13T11:27:24.845Z,88.85
2018-06-13T11:32:19.625Z,88.39
2018-06-13T11:37:14.393Z,89.30
2018-06-13T11:42:09.302Z,88.62
2018-06-13T11:47:04.082Z,89.97
2018-06-13T11:51:58.727Z,89.11
2018-06-13T11:56:53.531Z,88.31
2018-06-13T12:01:48.832Z,88.41
2018-06-13T12:06:43.505Z,88.55
2018-06-13T12:11:38.380Z,89.35
2018-06-13T12:16:33.193Z,89.26
2018-06-13T12:21:27.946Z,89.49
2018-06-13T12:26:22.739Z,90.16
2018-06-13T12:31:17.981Z,90.00
2018-06-13T12:36:12.799Z,89.91
2018-06-13T12:41:07.608Z,90.56
2018-06-13T12:46:02.295Z,90.68
2018-06-13T12:50:57.076Z,89.96
2018-06-13T12:55:51.741Z,90.04
2018-06-13T13:00:46.553Z,90.43
2018-06-13T13:05:41.316Z,90.28
2018-06-13T13:10:37.034Z,89.90
2018-06-13T13:15:31.837Z,89.87
2018-06-13T13:20:26.558Z,89.17
2018-06-13T13:25:21.282Z,88.89
2018-06-13T13:30:16.278Z,88.82
2018-06-13T13:35:10.989Z,88.89
2018-06-13T13:40:06.033Z,89.22
2018-06-13T13:45:00.842Z,89.14
2018-06-13T13:49:55.579Z,89.39
2018-06-13T13:54:50.284Z,89.44
2018-06-13T13:59:45.450Z,89.94
2018-06-13T14:04:40.375Z,89.63
2018-06-13T14:09:35.026Z,87.87
2018-06-13T14:14:29.734Z,82.94
2018-06-13T14:19:24.389Z,85.74
2018-06-13T14:24:19.994Z,83.97
2018-06-13T14:29:14.652Z,88.96
2018-06-13T14:34:09.336Z,88.44
2018-06-13T14:39:05.310Z,86.65
2018-06-13T14:44:00.512Z,88.98
2018-06-13T14:48:56.716Z,89.84
2018-06-13T14:53:53.976Z,89.96
2018-06-13T14:58:48.562Z,91.07
2018-06-13T15:03:43.246Z,90.63
2018-06-13T15:08:37.974Z,89.63
2018-06-13T15:13:32.754Z,88.94
2018-06-13T15:18:27.387Z,89.32
2018-06-13T15:23:22.040Z,88.54
2018-06-13T15:28:16.822Z,89.40
2018-06-13T15:33:11.625Z,88.49
2018-06-13T15:38:06.417Z,87.49
2018-06-13T15:43:01.083Z,87.69
2018-06-13T15:47:55.755Z,87.11
2018-06-13T15:52:51.812Z,87.76
2018-06-13T15:57:46.536Z,87.31
2018-06-13T16:02:41.192Z,86.46
2018-06-13T16:07:35.961Z,87.43
2018-06-13T16:12:30.792Z,87.65
2018-06-13T16:17:25.579Z,88.04
2018-06-13T16:22:20.489Z,88.53
2018-06-13T16:27:15.104Z,88.81
2018-06-13T16:32:09.843Z,87.93
2018-06-13T16:37:04.542Z,88.66
2018-06-13T16:41:59.320Z,89.20
2018-06-13T16:46:54.100Z,88.46
2018-06-13T16:51:54.647Z,88.75
2018-06-13T16:56:49.261Z,89.26
2018-06-13T17:01:44.470Z,89.02
2018-06-13T17:06:39.162Z,88.21
2018-06-13T17:11:33.919Z,88.93
2018-06-13T17:16:29.390Z,87.84
2018-06-13T17:21:24.011Z,88.50
2018-06-13T17:26:18.815Z,87.89
2018-06-13T17:31:15.665Z,88.29
2018-06-13T17:36:10.314Z,88.67
2018-06-13T17:41:05.127Z,89.30
2018-06-13T17:45:59.738Z,89.18
2018-06-13T17:50:54.515Z,89.81
2018-06-13T17:55:49.289Z,89.08
2018-06-13T18:00:44.031Z,88.66
2018-06-13T18:05:38.783Z,89.09
2018-06-13T18:10:33.477Z,88.21
2018-06-13T18:15:28.248Z,88.67
2018-06-13T18:20:23.051Z,88.61
2018-06-13T18:25:17.874Z,88.86
2018-06-13T18:30:12.633Z,89.25
2018-06-13T18:35:08.749Z,89.72
2018-06-13T18:40:03.558Z,90.15
2018-06-13T18:44:58.395Z,89.90
2018-06-13T18:49:53.097Z,89.92
2018-06-13T18:54:47.810Z,90.11
2018-06-13T18:59:43.231Z,89.87
2018-06-13T19:04:37.955Z,90.28
2018-06-13T19:09:32.734Z,90.61
2018-06-13T19:14:27.451Z,90.75
2018-06-13T19:19:22.142Z,90.58
2018-06-13T19:24:16.904Z,90.61
2018-06-13T19:29:11.476Z,90.66
2018-06-13T19:34:06.246Z,91.19
2018-06-13T19:39:00.945Z,91.61
2018-06-13T19:43:55.702Z,91.23
2018-06-13T19:48:52.883Z,91.18
2018-06-13T19:53:52.751Z,91.45
2018-06-13T19:58:47.470Z,91.93
2018-06-13T20:03:47.405Z,91.67
2018-06-13T20:08:42.647Z,92.15
2018-06-13T20:13:42.353Z,91.52
2018-06-13T20:18:42.216Z,91.16
2018-06-13T20:23:36.877Z,91.39
2018-06-13T20:28:37.045Z,91.20
2018-06-13T20:33:31.687Z,91.06
2018-06-13T20:38:27.072Z,91.36
2018-06-13T20:43:21.907Z,91.18
2018-06-13T20:48:16.697Z,91.30
2018-06-13T20:53:11.803Z,91.53
2018-06-13T20:58:06.850Z,90.97
2018-06-13T21:03:01.411Z,89.03
2018-06-13T21:07:56.209Z,90.68
2018-06-13T21:12:50.841Z,89.62
2018-06-13T21:17:45.601Z,88.75
2018-06-13T21:22:40.199Z,88.80
2018-06-13T21:27:35.522Z,89.14
2018-06-13T21:32:30.493Z,87.49
2018-06-13T21:37:25.320Z,89.01
2018-06-13T21:42:20.189Z,89.53
2018-06-13T21:47:14.989Z,89.71
2018-06-13T21:52:09.759Z,89.50
2018-06-13T21:57:04.691Z,89.31
2018-06-13T22:01:59.426Z,89.58
2018-06-13T22:06:54.886Z,89.68
2018-06-13T22:11:52.604Z,89.62
2018-06-13T22:16:47.449Z,89.92
2018-06-13T22:21:43.514Z,89.53
2018-06-13T22:26:39.139Z,90.78
2018-06-13T22:31:37.189Z,90.63
2018-06-13T22:36:32.269Z,90.52
2018-06-13T22:41:27.038Z,90.56
2018-06-13T22:46:21.793Z,91.09
2018-06-13T22:51:16.492Z,90.84
2018-06-13T22:56:11.120Z,91.29
2018-06-13T23:01:10.733Z,91.28
2018-06-13T23:06:09.225Z,91.94
2018-06-13T23:11:04.070Z,91.23
2018-06-13T23:15:58.752Z,91.48
2018-06-13T23:20:53.563Z,92.30
2018-06-13T23:25:48.195Z,92.11
2018-06-13T23:30:43.585Z,92.20
2018-06-13T23:35:38.427Z,91.86
2018-06-13T23:40:33.139Z,92.19
2018-06-13T23:45:27.851Z,90.89
2018-06-13T23:50:22.502Z,91.63
2018-06-13T23:55:17.541Z,91.04
